sensor_id;sensor_type;location;lat;lon;timestamp;P1;durP1;ratioP1;P2;durP2;ratioP2
24961;SDS011;12992;50.884;13.668;2023-05-10T00:00:49;4.68;;;2.70;;
24961;SDS011;12992;50.884;13.668;2023-05-10T00:03:15;4.25;;;2.88;;
24961;SDS011;12992;50.884;13.668;2023-05-10T00:05:40;4.68;;;2.58;;
24961;SDS011;12992;50.884;13.668;2023-05-10T00:08:05;5.43;;;2.60;;
24961;SDS011;12992;50.884;13.668;2023-05-10T00:10:31;5.65;;;2.90;;
24961;SDS011;12992;50.884;13.668;2023-05-10T00:12:56;4.78;;;2.88;;
24961;SDS011;12992;50.884;13.668;2023-05-10T00:15:21;3.25;;;2.60;;
24961;SDS011;12992;50.884;13.668;2023-05-10T00:17:47;5.07;;;2.60;;
24961;SDS011;12992;50.884;13.668;2023-05-10T00:20:12;3.05;;;2.42;;
24961;SDS011;12992;50.884;13.668;2023-05-10T00:22:37;5.35;;;2.92;;
24961;SDS011;12992;50.884;13.668;2023-05-10T00:25:03;3.90;;;2.80;;
24961;SDS011;12992;50.884;13.668;2023-05-10T00:27:28;3.38;;;2.50;;
24961;SDS011;12992;50.884;13.668;2023-05-10T00:29:54;4.15;;;2.85;;
24961;SDS011;12992;50.884;13.668;2023-05-10T00:32:19;4.20;;;2.78;;
24961;SDS011;12992;50.884;13.668;2023-05-10T00:34:45;4.45;;;2.80;;
24961;SDS011;12992;50.884;13.668;2023-05-10T00:37:10;4.38;;;2.70;;
24961;SDS011;12992;50.884;13.668;2023-05-10T00:39:36;3.17;;;2.60;;
24961;SDS011;12992;50.884;13.668;2023-05-10T00:42:01;3.88;;;2.40;;
24961;SDS011;12992;50.884;13.668;2023-05-10T00:44:27;5.30;;;2.60;;
24961;SDS011;12992;50.884;13.668;2023-05-10T00:46:52;3.67;;;2.92;;
24961;SDS011;12992;50.884;13.668;2023-05-10T00:49:18;3.17;;;2.65;;
24961;SDS011;12992;50.884;13.668;2023-05-10T00:51:44;4.40;;;2.90;;
24961;SDS011;12992;50.884;13.668;2023-05-10T00:54:13;3.05;;;2.50;;
24961;SDS011;12992;50.884;13.668;2023-05-10T00:56:40;3.30;;;2.80;;
24961;SDS011;12992;50.884;13.668;2023-05-10T00:59:05;4.72;;;2.45;;
24961;SDS011;12992;50.884;13.668;2023-05-10T01:01:31;3.92;;;2.70;;
24961;SDS011;12992;50.884;13.668;2023-05-10T01:03:57;5.82;;;2.70;;
24961;SDS011;12992;50.884;13.668;2023-05-10T01:06:23;5.20;;;2.40;;
24961;SDS011;12992;50.884;13.668;2023-05-10T01:08:48;6.25;;;2.60;;
24961;SDS011;12992;50.884;13.668;2023-05-10T01:11:14;4.60;;;2.75;;
24961;SDS011;12992;50.884;13.668;2023-05-10T01:13:40;5.20;;;2.88;;
24961;SDS011;12992;50.884;13.668;2023-05-10T01:16:07;4.22;;;3.00;;
24961;SDS011;12992;50.884;13.668;2023-05-10T01:18:34;4.70;;;3.08;;
24961;SDS011;12992;50.884;13.668;2023-05-10T01:21:08;4.07;;;2.85;;
24961;SDS011;12992;50.884;13.668;2023-05-10T01:23:50;5.65;;;3.00;;
24961;SDS011;12992;50.884;13.668;2023-05-10T01:34:59;3.85;;;2.90;;
24961;SDS011;12992;50.884;13.668;2023-05-10T01:37:35;4.82;;;2.72;;
24961;SDS011;12992;50.884;13.668;2023-05-10T01:40:15;5.53;;;2.90;;
24961;SDS011;12992;50.884;13.668;2023-05-10T01:42:52;5.18;;;2.60;;
24961;SDS011;12992;50.884;13.668;2023-05-10T01:45:35;4.07;;;2.75;;
24961;SDS011;12992;50.884;13.668;2023-05-10T01:48:05;3.13;;;2.47;;
24961;SDS011;12992;50.884;13.668;2023-05-10T01:50:35;3.95;;;2.95;;
24961;SDS011;12992;50.884;13.668;2023-05-10T01:53:05;4.65;;;2.53;;
24961;SDS011;12992;50.884;13.668;2023-05-10T01:55:33;2.55;;;2.17;;
24961;SDS011;12992;50.884;13.668;2023-05-10T01:58:07;4.80;;;2.63;;
24961;SDS011;12992;50.884;13.668;2023-05-10T02:00:34;3.55;;;2.60;;
24961;SDS011;12992;50.884;13.668;2023-05-10T02:03:01;3.75;;;2.60;;
24961;SDS011;12992;50.884;13.668;2023-05-10T02:05:32;4.68;;;2.65;;
24961;SDS011;12992;50.884;13.668;2023-05-10T02:07:58;3.38;;;2.53;;
24961;SDS011;12992;50.884;13.668;2023-05-10T02:10:27;3.15;;;2.50;;
24961;SDS011;12992;50.884;13.668;2023-05-10T02:12:53;3.63;;;2.50;;
24961;SDS011;12992;50.884;13.668;2023-05-10T02:15:23;4.47;;;3.15;;
24961;SDS011;12992;50.884;13.668;2023-05-10T02:17:50;7.00;;;2.80;;
24961;SDS011;12992;50.884;13.668;2023-05-10T02:20:19;5.15;;;2.92;;
24961;SDS011;12992;50.884;13.668;2023-05-10T02:22:47;3.60;;;2.90;;
24961;SDS011;12992;50.884;13.668;2023-05-10T02:25:15;4.32;;;2.60;;
24961;SDS011;12992;50.884;13.668;2023-05-10T02:27:44;2.55;;;2.28;;
24961;SDS011;12992;50.884;13.668;2023-05-10T02:30:10;3.35;;;2.70;;
24961;SDS011;12992;50.884;13.668;2023-05-10T02:32:36;4.13;;;2.88;;
24961;SDS011;12992;50.884;13.668;2023-05-10T02:35:02;3.95;;;3.03;;
24961;SDS011;12992;50.884;13.668;2023-05-10T02:37:28;3.45;;;2.63;;
24961;SDS011;12992;50.884;13.668;2023-05-10T02:39:55;3.38;;;2.85;;
24961;SDS011;12992;50.884;13.668;2023-05-10T02:42:26;3.00;;;2.63;;
24961;SDS011;12992;50.884;13.668;2023-05-10T02:44:54;3.42;;;2.70;;
24961;SDS011;12992;50.884;13.668;2023-05-10T02:47:24;5.30;;;2.77;;
24961;SDS011;12992;50.884;13.668;2023-05-10T02:49:49;4.47;;;2.80;;
24961;SDS011;12992;50.884;13.668;2023-05-10T02:52:16;5.97;;;2.63;;
24961;SDS011;12992;50.884;13.668;2023-05-10T02:54:52;5.25;;;2.90;;
24961;SDS011;12992;50.884;13.668;2023-05-10T02:57:32;3.47;;;2.75;;
24961;SDS011;12992;50.884;13.668;2023-05-10T02:59:59;3.05;;;2.55;;
24961;SDS011;12992;50.884;13.668;2023-05-10T03:02:28;4.10;;;2.80;;
24961;SDS011;12992;50.884;13.668;2023-05-10T03:04:55;4.25;;;2.58;;
24961;SDS011;12992;50.884;13.668;2023-05-10T03:07:20;5.93;;;2.72;;
24961;SDS011;12992;50.884;13.668;2023-05-10T03:09:47;3.15;;;2.55;;
24961;SDS011;12992;50.884;13.668;2023-05-10T03:12:15;2.55;;;2.22;;
24961;SDS011;12992;50.884;13.668;2023-05-10T03:14:57;3.65;;;2.67;;
24961;SDS011;12992;50.884;13.668;2023-05-10T03:17:30;5.32;;;2.58;;
24961;SDS011;12992;50.884;13.668;2023-05-10T03:20:12;3.17;;;2.35;;
24961;SDS011;12992;50.884;13.668;2023-05-10T03:22:54;4.47;;;3.00;;
24961;SDS011;12992;50.884;13.668;2023-05-10T03:25:25;6.65;;;2.90;;
24961;SDS011;12992;50.884;13.668;2023-05-10T03:27:51;2.90;;;2.60;;
24961;SDS011;12992;50.884;13.668;2023-05-10T03:30:18;5.25;;;3.45;;
24961;SDS011;12992;50.884;13.668;2023-05-10T03:32:45;4.80;;;3.67;;
24961;SDS011;12992;50.884;13.668;2023-05-10T03:35:12;3.53;;;2.90;;
24961;SDS011;12992;50.884;13.668;2023-05-10T03:37:38;6.68;;;2.85;;
24961;SDS011;12992;50.884;13.668;2023-05-10T03:40:04;4.60;;;3.03;;
24961;SDS011;12992;50.884;13.668;2023-05-10T03:42:33;2.85;;;2.42;;
24961;SDS011;12992;50.884;13.668;2023-05-10T03:44:58;3.53;;;2.75;;
24961;SDS011;12992;50.884;13.668;2023-05-10T03:47:24;3.17;;;2.85;;
24961;SDS011;12992;50.884;13.668;2023-05-10T03:49:49;8.65;;;2.95;;
24961;SDS011;12992;50.884;13.668;2023-05-10T03:52:14;2.88;;;2.58;;
24961;SDS011;12992;50.884;13.668;2023-05-10T03:54:40;5.40;;;2.80;;
24961;SDS011;12992;50.884;13.668;2023-05-10T03:57:05;2.78;;;2.47;;
24961;SDS011;12992;50.884;13.668;2023-05-10T03:59:31;3.80;;;2.30;;
24961;SDS011;12992;50.884;13.668;2023-05-10T04:01:56;4.20;;;2.70;;
24961;SDS011;12992;50.884;13.668;2023-05-10T04:04:22;3.28;;;2.72;;
24961;SDS011;12992;50.884;13.668;2023-05-10T04:06:48;4.55;;;2.55;;
24961;SDS011;12992;50.884;13.668;2023-05-10T04:09:14;5.00;;;2.35;;
24961;SDS011;12992;50.884;13.668;2023-05-10T04:11:40;3.40;;;2.33;;
24961;SDS011;12992;50.884;13.668;2023-05-10T04:14:05;4.85;;;2.80;;
24961;SDS011;12992;50.884;13.668;2023-05-10T04:16:30;3.97;;;2.65;;
24961;SDS011;12992;50.884;13.668;2023-05-10T04:18:56;4.15;;;2.60;;
24961;SDS011;12992;50.884;13.668;2023-05-10T04:21:21;2.88;;;2.53;;
24961;SDS011;12992;50.884;13.668;2023-05-10T04:23:46;3.33;;;2.55;;
24961;SDS011;12992;50.884;13.668;2023-05-10T04:26:12;3.22;;;2.35;;
24961;SDS011;12992;50.884;13.668;2023-05-10T04:28:38;2.72;;;2.35;;
24961;SDS011;12992;50.884;13.668;2023-05-10T04:31:04;3.47;;;2.63;;
24961;SDS011;12992;50.884;13.668;2023-05-10T04:33:30;5.75;;;2.40;;
24961;SDS011;12992;50.884;13.668;2023-05-10T04:35:56;3.65;;;2.33;;
24961;SDS011;12992;50.884;13.668;2023-05-10T04:38:21;3.78;;;2.40;;
24961;SDS011;12992;50.884;13.668;2023-05-10T04:40:47;3.58;;;2.47;;
24961;SDS011;12992;50.884;13.668;2023-05-10T04:43:12;3.22;;;2.50;;
24961;SDS011;12992;50.884;13.668;2023-05-10T04:45:38;3.30;;;2.10;;
24961;SDS011;12992;50.884;13.668;2023-05-10T04:48:03;3.35;;;2.35;;
24961;SDS011;12992;50.884;13.668;2023-05-10T04:50:28;2.55;;;2.15;;
24961;SDS011;12992;50.884;13.668;2023-05-10T04:52:54;3.85;;;2.35;;
24961;SDS011;12992;50.884;13.668;2023-05-10T04:55:19;3.42;;;2.20;;
24961;SDS011;12992;50.884;13.668;2023-05-10T04:57:44;3.35;;;2.15;;
24961;SDS011;12992;50.884;13.668;2023-05-10T05:00:10;2.50;;;2.17;;
24961;SDS011;12992;50.884;13.668;2023-05-10T05:02:36;3.75;;;2.20;;
24961;SDS011;12992;50.884;13.668;2023-05-10T05:05:01;5.55;;;2.40;;
24961;SDS011;12992;50.884;13.668;2023-05-10T05:07:26;2.78;;;2.05;;
24961;SDS011;12992;50.884;13.668;2023-05-10T05:09:52;2.97;;;1.90;;
24961;SDS011;12992;50.884;13.668;2023-05-10T05:12:17;3.33;;;2.20;;
24961;SDS011;12992;50.884;13.668;2023-05-10T05:14:43;3.33;;;2.05;;
24961;SDS011;12992;50.884;13.668;2023-05-10T05:17:08;5.03;;;2.20;;
24961;SDS011;12992;50.884;13.668;2023-05-10T05:19:33;2.20;;;2.00;;
24961;SDS011;12992;50.884;13.668;2023-05-10T05:21:59;4.22;;;2.03;;
24961;SDS011;12992;50.884;13.668;2023-05-10T05:24:24;2.60;;;2.10;;
24961;SDS011;12992;50.884;13.668;2023-05-10T05:26:49;2.47;;;1.88;;
24961;SDS011;12992;50.884;13.668;2023-05-10T05:29:15;2.47;;;1.90;;
24961;SDS011;12992;50.884;13.668;2023-05-10T05:31:40;3.70;;;2.15;;
24961;SDS011;12992;50.884;13.668;2023-05-10T05:34:06;2.85;;;1.92;;
24961;SDS011;12992;50.884;13.668;2023-05-10T05:36:31;2.53;;;2.08;;
24961;SDS011;12992;50.884;13.668;2023-05-10T05:38:57;2.17;;;1.75;;
24961;SDS011;12992;50.884;13.668;2023-05-10T05:41:23;4.95;;;2.30;;
24961;SDS011;12992;50.884;13.668;2023-05-10T05:43:49;2.80;;;2.00;;
24961;SDS011;12992;50.884;13.668;2023-05-10T05:46:14;5.20;;;1.92;;
24961;SDS011;12992;50.884;13.668;2023-05-10T05:48:40;2.75;;;2.10;;
24961;SDS011;12992;50.884;13.668;2023-05-10T05:51:05;3.13;;;1.90;;
24961;SDS011;12992;50.884;13.668;2023-05-10T05:53:30;3.45;;;1.95;;
24961;SDS011;12992;50.884;13.668;2023-05-10T05:55:56;2.78;;;1.98;;
24961;SDS011;12992;50.884;13.668;2023-05-10T05:58:23;2.25;;;2.05;;
24961;SDS011;12992;50.884;13.668;2023-05-10T06:00:49;5.03;;;1.83;;
24961;SDS011;12992;50.884;13.668;2023-05-10T06:03:16;2.25;;;2.05;;
24961;SDS011;12992;50.884;13.668;2023-05-10T06:05:41;3.72;;;2.00;;
24961;SDS011;12992;50.884;13.668;2023-05-10T06:08:06;4.00;;;2.20;;
24961;SDS011;12992;50.884;13.668;2023-05-10T06:10:32;3.42;;;1.98;;
24961;SDS011;12992;50.884;13.668;2023-05-10T06:12:57;1.85;;;1.70;;
24961;SDS011;12992;50.884;13.668;2023-05-10T06:15:22;2.15;;;1.90;;
24961;SDS011;12992;50.884;13.668;2023-05-10T06:17:47;2.05;;;1.80;;
24961;SDS011;12992;50.884;13.668;2023-05-10T06:20:14;3.75;;;1.90;;
24961;SDS011;12992;50.884;13.668;2023-05-10T06:22:40;3.63;;;2.08;;
24961;SDS011;12992;50.884;13.668;2023-05-10T06:25:06;3.65;;;1.88;;
24961;SDS011;12992;50.884;13.668;2023-05-10T06:27:32;4.22;;;2.20;;
24961;SDS011;12992;50.884;13.668;2023-05-10T06:29:57;3.10;;;1.80;;
24961;SDS011;12992;50.884;13.668;2023-05-10T06:32:23;4.72;;;1.90;;
24961;SDS011;12992;50.884;13.668;2023-05-10T06:34:48;2.88;;;2.00;;
24961;SDS011;12992;50.884;13.668;2023-05-10T06:37:13;3.35;;;2.10;;
24961;SDS011;12992;50.884;13.668;2023-05-10T06:39:38;2.38;;;2.03;;
24961;SDS011;12992;50.884;13.668;2023-05-10T06:42:04;2.72;;;2.00;;
24961;SDS011;12992;50.884;13.668;2023-05-10T06:44:31;2.17;;;1.83;;
24961;SDS011;12992;50.884;13.668;2023-05-10T06:46:57;5.63;;;2.08;;
24961;SDS011;12992;50.884;13.668;2023-05-10T06:49:22;2.67;;;1.83;;
24961;SDS011;12992;50.884;13.668;2023-05-10T06:51:47;2.70;;;2.33;;
24961;SDS011;12992;50.884;13.668;2023-05-10T06:54:13;5.32;;;2.22;;
24961;SDS011;12992;50.884;13.668;2023-05-10T06:56:38;2.10;;;1.90;;
24961;SDS011;12992;50.884;13.668;2023-05-10T06:59:04;2.30;;;1.80;;
24961;SDS011;12992;50.884;13.668;2023-05-10T07:01:29;2.05;;;1.70;;
24961;SDS011;12992;50.884;13.668;2023-05-10T07:03:54;2.22;;;1.92;;
24961;SDS011;12992;50.884;13.668;2023-05-10T07:06:20;2.67;;;2.08;;
24961;SDS011;12992;50.884;13.668;2023-05-10T07:08:45;3.20;;;2.30;;
24961;SDS011;12992;50.884;13.668;2023-05-10T07:11:11;3.28;;;2.50;;
24961;SDS011;12992;50.884;13.668;2023-05-10T07:13:36;2.63;;;2.17;;
24961;SDS011;12992;50.884;13.668;2023-05-10T07:16:04;2.83;;;1.88;;
24961;SDS011;12992;50.884;13.668;2023-05-10T07:18:31;2.85;;;2.15;;
24961;SDS011;12992;50.884;13.668;2023-05-10T07:20:57;3.15;;;2.15;;
24961;SDS011;12992;50.884;13.668;2023-05-10T07:23:22;2.63;;;1.98;;
24961;SDS011;12992;50.884;13.668;2023-05-10T07:25:48;3.55;;;2.30;;
24961;SDS011;12992;50.884;13.668;2023-05-10T07:28:14;3.42;;;2.20;;
24961;SDS011;12992;50.884;13.668;2023-05-10T07:30:41;2.50;;;2.03;;
24961;SDS011;12992;50.884;13.668;2023-05-10T07:33:07;5.63;;;2.40;;
24961;SDS011;12992;50.884;13.668;2023-05-10T07:35:33;2.10;;;1.90;;
24961;SDS011;12992;50.884;13.668;2023-05-10T07:37:59;2.80;;;2.10;;
24961;SDS011;12992;50.884;13.668;2023-05-10T07:40:25;6.07;;;2.42;;
24961;SDS011;12992;50.884;13.668;2023-05-10T07:42:51;2.47;;;2.00;;
24961;SDS011;12992;50.884;13.668;2023-05-10T07:45:17;5.30;;;2.00;;
24961;SDS011;12992;50.884;13.668;2023-05-10T07:47:42;3.08;;;2.20;;
24961;SDS011;12992;50.884;13.668;2023-05-10T07:50:08;3.25;;;2.22;;
24961;SDS011;12992;50.884;13.668;2023-05-10T07:52:33;2.58;;;2.25;;
24961;SDS011;12992;50.884;13.668;2023-05-10T07:54:58;6.90;;;2.58;;
24961;SDS011;12992;50.884;13.668;2023-05-10T07:57:24;2.35;;;2.15;;
24961;SDS011;12992;50.884;13.668;2023-05-10T07:59:49;2.28;;;2.08;;
24961;SDS011;12992;50.884;13.668;2023-05-10T08:02:15;7.13;;;2.10;;
24961;SDS011;12992;50.884;13.668;2023-05-10T08:04:40;3.05;;;2.10;;
24961;SDS011;12992;50.884;13.668;2023-05-10T08:07:05;2.08;;;1.90;;
24961;SDS011;12992;50.884;13.668;2023-05-10T08:09:31;4.43;;;2.13;;
24961;SDS011;12992;50.884;13.668;2023-05-10T08:11:56;2.80;;;2.10;;
24961;SDS011;12992;50.884;13.668;2023-05-10T08:14:23;2.45;;;2.17;;
24961;SDS011;12992;50.884;13.668;2023-05-10T08:16:49;3.00;;;2.28;;
24961;SDS011;12992;50.884;13.668;2023-05-10T08:19:14;2.92;;;1.92;;
24961;SDS011;12992;50.884;13.668;2023-05-10T08:21:43;3.00;;;2.00;;
24961;SDS011;12992;50.884;13.668;2023-05-10T08:24:09;3.75;;;2.08;;
24961;SDS011;12992;50.884;13.668;2023-05-10T08:26:34;3.00;;;1.80;;
24961;SDS011;12992;50.884;13.668;2023-05-10T08:28:59;2.85;;;1.70;;
24961;SDS011;12992;50.884;13.668;2023-05-10T08:31:25;3.15;;;1.88;;
24961;SDS011;12992;50.884;13.668;2023-05-10T08:33:50;3.28;;;1.90;;
24961;SDS011;12992;50.884;13.668;2023-05-10T08:36:17;3.55;;;2.00;;
24961;SDS011;12992;50.884;13.668;2023-05-10T08:38:46;4.93;;;1.60;;
24961;SDS011;12992;50.884;13.668;2023-05-10T08:41:12;2.10;;;1.90;;
24961;SDS011;12992;50.884;13.668;2023-05-10T08:43:38;3.58;;;1.70;;
24961;SDS011;12992;50.884;13.668;2023-05-10T08:46:04;3.67;;;1.75;;
24961;SDS011;12992;50.884;13.668;2023-05-10T08:48:33;2.15;;;1.70;;
24961;SDS011;12992;50.884;13.668;2023-05-10T08:50:59;3.22;;;1.80;;
24961;SDS011;12992;50.884;13.668;2023-05-10T08:53:25;6.53;;;2.20;;
24961;SDS011;12992;50.884;13.668;2023-05-10T08:55:52;3.17;;;1.80;;
24961;SDS011;12992;50.884;13.668;2023-05-10T08:58:17;4.15;;;2.20;;
24961;SDS011;12992;50.884;13.668;2023-05-10T09:00:44;2.10;;;1.90;;
24961;SDS011;12992;50.884;13.668;2023-05-10T09:03:10;2.50;;;1.92;;
24961;SDS011;12992;50.884;13.668;2023-05-10T09:05:36;2.10;;;1.88;;
24961;SDS011;12992;50.884;13.668;2023-05-10T09:08:02;4.80;;;1.90;;
24961;SDS011;12992;50.884;13.668;2023-05-10T09:10:27;2.50;;;2.25;;
24961;SDS011;12992;50.884;13.668;2023-05-10T09:12:56;3.53;;;2.08;;
24961;SDS011;12992;50.884;13.668;2023-05-10T09:15:22;2.17;;;1.73;;
24961;SDS011;12992;50.884;13.668;2023-05-10T09:17:47;2.75;;;1.80;;
24961;SDS011;12992;50.884;13.668;2023-05-10T09:20:14;2.35;;;2.15;;
24961;SDS011;12992;50.884;13.668;2023-05-10T09:22:42;1.83;;;1.70;;
24961;SDS011;12992;50.884;13.668;2023-05-10T09:25:11;2.10;;;1.90;;
24961;SDS011;12992;50.884;13.668;2023-05-10T09:27:39;2.10;;;1.77;;
24961;SDS011;12992;50.884;13.668;2023-05-10T09:30:06;3.63;;;1.92;;
24961;SDS011;12992;50.884;13.668;2023-05-10T09:32:39;2.88;;;2.05;;
24961;SDS011;12992;50.884;13.668;2023-05-10T09:35:06;2.45;;;2.20;;
24961;SDS011;12992;50.884;13.668;2023-05-10T09:37:35;3.80;;;2.03;;
24961;SDS011;12992;50.884;13.668;2023-05-10T09:40:01;2.38;;;2.17;;
24961;SDS011;12992;50.884;13.668;2023-05-10T09:42:29;3.80;;;2.35;;
24961;SDS011;12992;50.884;13.668;2023-05-10T09:44:58;7.10;;;2.53;;
24961;SDS011;12992;50.884;13.668;2023-05-10T09:47:25;3.60;;;2.15;;
24961;SDS011;12992;50.884;13.668;2023-05-10T09:49:52;2.30;;;2.10;;
24961;SDS011;12992;50.884;13.668;2023-05-10T09:52:20;3.30;;;2.13;;
24961;SDS011;12992;50.884;13.668;2023-05-10T09:54:52;2.40;;;2.20;;
24961;SDS011;12992;50.884;13.668;2023-05-10T09:57:20;4.30;;;2.30;;
24961;SDS011;12992;50.884;13.668;2023-05-10T09:59:46;4.82;;;2.03;;
24961;SDS011;12992;50.884;13.668;2023-05-10T10:02:12;2.97;;;2.10;;
24961;SDS011;12992;50.884;13.668;2023-05-10T10:04:41;4.75;;;2.20;;
24961;SDS011;12992;50.884;13.668;2023-05-10T10:07:07;2.75;;;2.10;;
24961;SDS011;12992;50.884;13.668;2023-05-10T10:09:33;4.40;;;2.47;;
24961;SDS011;12992;50.884;13.668;2023-05-10T10:11:59;4.25;;;2.13;;
24961;SDS011;12992;50.884;13.668;2023-05-10T10:14:25;2.53;;;2.10;;
24961;SDS011;12992;50.884;13.668;2023-05-10T10:16:51;3.25;;;2.30;;
24961;SDS011;12992;50.884;13.668;2023-05-10T10:19:20;2.95;;;2.20;;
24961;SDS011;12992;50.884;13.668;2023-05-10T10:21:49;4.60;;;2.22;;
24961;SDS011;12992;50.884;13.668;2023-05-10T10:24:14;3.00;;;2.60;;
24961;SDS011;12992;50.884;13.668;2023-05-10T10:26:40;3.47;;;2.55;;
24961;SDS011;12992;50.884;13.668;2023-05-10T10:29:11;2.60;;;2.33;;
24961;SDS011;12992;50.884;13.668;2023-05-10T10:32:06;2.80;;;2.25;;
24961;SDS011;12992;50.884;13.668;2023-05-10T10:34:44;3.17;;;2.63;;
24961;SDS011;12992;50.884;13.668;2023-05-10T10:37:10;3.40;;;2.83;;
24961;SDS011;12992;50.884;13.668;2023-05-10T10:39:35;2.30;;;2.10;;
24961;SDS011;12992;50.884;13.668;2023-05-10T10:42:01;2.92;;;2.28;;
24961;SDS011;12992;50.884;13.668;2023-05-10T10:49:50;3.53;;;2.47;;
24961;SDS011;12992;50.884;13.668;2023-05-10T10:52:23;5.13;;;2.45;;
24961;SDS011;12992;50.884;13.668;2023-05-10T10:57:42;3.15;;;2.83;;
24961;SDS011;12992;50.884;13.668;2023-05-10T11:07:55;2.83;;;2.25;;
24961;SDS011;12992;50.884;13.668;2023-05-10T11:10:23;2.97;;;2.67;;
24961;SDS011;12992;50.884;13.668;2023-05-10T11:12:53;3.00;;;2.50;;
24961;SDS011;12992;50.884;13.668;2023-05-10T11:15:32;3.58;;;2.40;;
24961;SDS011;12992;50.884;13.668;2023-05-10T11:20:42;4.13;;;2.40;;
24961;SDS011;12992;50.884;13.668;2023-05-10T11:23:12;3.63;;;2.60;;
24961;SDS011;12992;50.884;13.668;2023-05-10T11:25:43;5.22;;;2.47;;
24961;SDS011;12992;50.884;13.668;2023-05-10T11:28:13;2.92;;;2.25;;
24961;SDS011;12992;50.884;13.668;2023-05-10T11:30:39;4.78;;;2.60;;
24961;SDS011;12992;50.884;13.668;2023-05-10T11:33:05;4.28;;;2.70;;
24961;SDS011;12992;50.884;13.668;2023-05-10T11:35:36;3.90;;;2.78;;
24961;SDS011;12992;50.884;13.668;2023-05-10T11:40:32;3.58;;;2.35;;
24961;SDS011;12992;50.884;13.668;2023-05-10T11:42:58;3.95;;;2.65;;
24961;SDS011;12992;50.884;13.668;2023-05-10T11:45:24;3.42;;;2.88;;
24961;SDS011;12992;50.884;13.668;2023-05-10T11:47:50;5.00;;;3.17;;
24961;SDS011;12992;50.884;13.668;2023-05-10T11:50:15;5.85;;;3.28;;
24961;SDS011;12992;50.884;13.668;2023-05-10T11:52:42;4.63;;;3.60;;
24961;SDS011;12992;50.884;13.668;2023-05-10T11:55:07;8.45;;;2.97;;
24961;SDS011;12992;50.884;13.668;2023-05-10T11:57:32;4.40;;;3.20;;
24961;SDS011;12992;50.884;13.668;2023-05-10T11:59:58;4.25;;;3.03;;
24961;SDS011;12992;50.884;13.668;2023-05-10T12:02:23;4.45;;;2.90;;
24961;SDS011;12992;50.884;13.668;2023-05-10T12:04:49;3.40;;;2.50;;
24961;SDS011;12992;50.884;13.668;2023-05-10T12:07:15;17.02;;;3.92;;
24961;SDS011;12992;50.884;13.668;2023-05-10T12:09:44;2.60;;;2.40;;
24961;SDS011;12992;50.884;13.668;2023-05-10T12:12:26;4.22;;;3.05;;
24961;SDS011;12992;50.884;13.668;2023-05-10T12:14:51;4.35;;;2.78;;
24961;SDS011;12992;50.884;13.668;2023-05-10T12:17:17;3.70;;;2.70;;
24961;SDS011;12992;50.884;13.668;2023-05-10T12:19:42;6.50;;;3.08;;
24961;SDS011;12992;50.884;13.668;2023-05-10T12:22:08;4.45;;;2.97;;
24961;SDS011;12992;50.884;13.668;2023-05-10T12:24:35;8.88;;;3.58;;
24961;SDS011;12992;50.884;13.668;2023-05-10T12:27:04;4.82;;;3.35;;
24961;SDS011;12992;50.884;13.668;2023-05-10T12:29:30;5.15;;;3.55;;
24961;SDS011;12992;50.884;13.668;2023-05-10T12:31:56;3.25;;;2.95;;
24961;SDS011;12992;50.884;13.668;2023-05-10T12:34:33;3.38;;;2.70;;
24961;SDS011;12992;50.884;13.668;2023-05-10T12:37:00;3.10;;;2.75;;
24961;SDS011;12992;50.884;13.668;2023-05-10T12:39:43;5.50;;;2.95;;
24961;SDS011;12992;50.884;13.668;2023-05-10T12:42:09;4.22;;;3.13;;
24961;SDS011;12992;50.884;13.668;2023-05-10T12:44:35;6.35;;;3.58;;
24961;SDS011;12992;50.884;13.668;2023-05-10T12:47:00;3.38;;;3.08;;
24961;SDS011;12992;50.884;13.668;2023-05-10T12:49:26;4.70;;;3.85;;
24961;SDS011;12992;50.884;13.668;2023-05-10T12:51:51;5.57;;;3.90;;
24961;SDS011;12992;50.884;13.668;2023-05-10T12:54:16;5.15;;;3.60;;
24961;SDS011;12992;50.884;13.668;2023-05-10T12:56:42;6.30;;;3.10;;
24961;SDS011;12992;50.884;13.668;2023-05-10T12:59:08;3.53;;;2.80;;
24961;SDS011;12992;50.884;13.668;2023-05-10T13:01:33;7.50;;;3.35;;
24961;SDS011;12992;50.884;13.668;2023-05-10T13:03:58;4.63;;;3.45;;
24961;SDS011;12992;50.884;13.668;2023-05-10T13:06:25;3.63;;;3.15;;
24961;SDS011;12992;50.884;13.668;2023-05-10T13:08:50;3.78;;;3.42;;
24961;SDS011;12992;50.884;13.668;2023-05-10T13:11:16;5.57;;;3.58;;
24961;SDS011;12992;50.884;13.668;2023-05-10T13:13:42;5.93;;;3.60;;
24961;SDS011;12992;50.884;13.668;2023-05-10T13:16:07;4.05;;;3.42;;
24961;SDS011;12992;50.884;13.668;2023-05-10T13:18:33;4.80;;;3.50;;
24961;SDS011;12992;50.884;13.668;2023-05-10T13:20:58;4.15;;;3.55;;
24961;SDS011;12992;50.884;13.668;2023-05-10T13:23:23;4.15;;;3.38;;
24961;SDS011;12992;50.884;13.668;2023-05-10T13:25:48;4.40;;;3.38;;
24961;SDS011;12992;50.884;13.668;2023-05-10T13:28:14;5.00;;;3.55;;
24961;SDS011;12992;50.884;13.668;2023-05-10T13:30:40;5.32;;;3.40;;
24961;SDS011;12992;50.884;13.668;2023-05-10T13:33:05;4.28;;;3.85;;
24961;SDS011;12992;50.884;13.668;2023-05-10T13:35:31;6.88;;;3.70;;
24961;SDS011;12992;50.884;13.668;2023-05-10T13:37:56;4.45;;;3.13;;
24961;SDS011;12992;50.884;13.668;2023-05-10T13:40:22;5.97;;;3.35;;
24961;SDS011;12992;50.884;13.668;2023-05-10T13:42:48;5.32;;;3.70;;
24961;SDS011;12992;50.884;13.668;2023-05-10T13:45:13;4.32;;;3.28;;
24961;SDS011;12992;50.884;13.668;2023-05-10T13:47:38;8.35;;;3.30;;
24961;SDS011;12992;50.884;13.668;2023-05-10T13:50:04;4.50;;;3.20;;
24961;SDS011;12992;50.884;13.668;2023-05-10T13:52:29;4.03;;;3.50;;
24961;SDS011;12992;50.884;13.668;2023-05-10T13:54:55;4.78;;;3.47;;
24961;SDS011;12992;50.884;13.668;2023-05-10T13:57:20;4.80;;;3.80;;
24961;SDS011;12992;50.884;13.668;2023-05-10T13:59:46;5.63;;;3.42;;
24961;SDS011;12992;50.884;13.668;2023-05-10T14:02:11;5.57;;;3.90;;
24961;SDS011;12992;50.884;13.668;2023-05-10T14:04:38;6.75;;;3.22;;
24961;SDS011;12992;50.884;13.668;2023-05-10T14:07:04;5.05;;;3.53;;
24961;SDS011;12992;50.884;13.668;2023-05-10T14:09:29;4.32;;;3.13;;
24961;SDS011;12992;50.884;13.668;2023-05-10T14:11:55;5.50;;;3.17;;
24961;SDS011;12992;50.884;13.668;2023-05-10T14:14:20;3.38;;;3.00;;
24961;SDS011;12992;50.884;13.668;2023-05-10T14:16:46;5.43;;;3.03;;
24961;SDS011;12992;50.884;13.668;2023-05-10T14:19:11;4.80;;;2.90;;
24961;SDS011;12992;50.884;13.668;2023-05-10T14:21:37;5.63;;;2.85;;
24961;SDS011;12992;50.884;13.668;2023-05-10T14:24:03;5.70;;;2.72;;
24961;SDS011;12992;50.884;13.668;2023-05-10T14:26:28;6.82;;;3.25;;
24961;SDS011;12992;50.884;13.668;2023-05-10T14:28:54;3.78;;;3.38;;
24961;SDS011;12992;50.884;13.668;2023-05-10T14:31:19;5.28;;;3.55;;
24961;SDS011;12992;50.884;13.668;2023-05-10T14:33:45;7.55;;;4.13;;
24961;SDS011;12992;50.884;13.668;2023-05-10T14:36:12;5.85;;;4.40;;
24961;SDS011;12992;50.884;13.668;2023-05-10T14:38:38;5.43;;;3.03;;
24961;SDS011;12992;50.884;13.668;2023-05-10T14:41:04;4.10;;;3.45;;
24961;SDS011;12992;50.884;13.668;2023-05-10T14:43:30;6.53;;;4.15;;
24961;SDS011;12992;50.884;13.668;2023-05-10T14:45:55;4.95;;;4.40;;
24961;SDS011;12992;50.884;13.668;2023-05-10T14:48:21;6.78;;;4.97;;
24961;SDS011;12992;50.884;13.668;2023-05-10T14:50:46;6.25;;;4.15;;
24961;SDS011;12992;50.884;13.668;2023-05-10T14:53:11;8.18;;;4.68;;
24961;SDS011;12992;50.884;13.668;2023-05-10T14:55:37;7.30;;;4.30;;
24961;SDS011;12992;50.884;13.668;2023-05-10T14:58:03;6.72;;;4.32;;
24961;SDS011;12992;50.884;13.668;2023-05-10T15:00:28;8.52;;;4.13;;